sensor_id;sensor_type;location;lat;lon;timestamp;pressure;altitude;pressure_sealevel;temperature;humidity
75794;BME280;64418;47.536;19.074;2023-01-25T00:01:46;101896.44;;;-0.39;100.00
75794;BME280;64418;47.536;19.074;2023-01-25T00:04:12;101910.59;;;-0.39;100.00
75794;BME280;64418;47.536;19.074;2023-01-25T00:06:40;101919.50;;;-0.26;100.00
75794;BME280;64418;47.536;19.074;2023-01-25T00:09:05;101919.81;;;-0.30;100.00
75794;BME280;64418;47.536;19.074;2023-01-25T00:11:32;101913.28;;;-0.12;100.00
75794;BME280;64418;47.536;19.074;2023-01-25T00:13:58;101927.12;;;-0.34;100.00
75794;BME280;64418;47.536;19.074;2023-01-25T00:16:24;101932.47;;;-0.48;100.00
75794;BME280;64418;47.536;19.074;2023-01-25T00:18:50;101938.41;;;-0.57;100.00
75794;BME280;64418;47.536;19.074;2023-01-25T00:21:18;101933.44;;;-0.63;100.00
75794;BME280;64418;47.536;19.074;2023-01-25T00:23:46;101935.63;;;-0.56;100.00
75794;BME280;64418;47.536;19.074;2023-01-25T00:26:15;101927.16;;;-0.48;100.00
75794;BME280;64418;47.536;19.074;2023-01-25T00:28:47;101935.91;;;-0.46;100.00
75794;BME280;64418;47.536;19.074;2023-01-25T00:31:21;101925.91;;;-0.57;100.00
75794;BME280;64418;47.536;19.074;2023-01-25T00:33:56;101925.75;;;-0.68;100.00
75794;BME280;64418;47.536;19.074;2023-01-25T00:36:33;101927.38;;;-0.65;100.00
75794;BME280;64418;47.536;19.074;2023-01-25T00:39:09;101928.31;;;-0.66;100.00
75794;BME280;64418;47.536;19.074;2023-01-25T00:41:36;101922.44;;;-0.57;100.00
75794;BME280;64418;47.536;19.074;2023-01-25T00:44:04;101927.66;;;-0.56;100.00
75794;BME280;64418;47.536;19.074;2023-01-25T00:46:30;101929.88;;;-0.76;100.00
75794;BME280;64418;47.536;19.074;2023-01-25T00:48:55;101922.84;;;-0.91;100.00
75794;BME280;64418;47.536;19.074;2023-01-25T00:51:21;101932.16;;;-0.99;100.00
75794;BME280;64418;47.536;19.074;2023-01-25T00:53:47;101940.09;;;-0.70;100.00
75794;BME280;64418;47.536;19.074;2023-01-25T00:56:17;101937.06;;;-0.64;100.00
75794;BME280;64418;47.536;19.074;2023-01-25T00:58:43;101934.03;;;-0.72;100.00
75794;BME280;64418;47.536;19.074;2023-01-25T01:01:09;101938.56;;;-0.60;100.00
75794;BME280;64418;47.536;19.074;2023-01-25T01:03:35;101938.87;;;-0.65;100.00
75794;BME280;64418;47.536;19.074;2023-01-25T01:06:03;101944.09;;;-0.77;100.00
75794;BME280;64418;47.536;19.074;2023-01-25T01:08:32;101940.47;;;-0.90;100.00
75794;BME280;64418;47.536;19.074;2023-01-25T01:11:03;101945.72;;;-1.03;100.00
75794;BME280;64418;47.536;19.074;2023-01-25T01:13:31;101942.28;;;-1.05;100.00
75794;BME280;64418;47.536;19.074;2023-01-25T01:16:00;101944.75;;;-1.16;100.00
75794;BME280;64418;47.536;19.074;2023-01-25T01:18:26;101942.72;;;-1.27;100.00
75794;BME280;64418;47.536;19.074;2023-01-25T01:20:52;101943.59;;;-1.12;100.00
75794;BME280;64418;47.536;19.074;2023-01-25T01:23:19;101946.38;;;-1.14;100.00
75794;BME280;64418;47.536;19.074;2023-01-25T01:25:45;101946.19;;;-1.11;100.00
75794;BME280;64418;47.536;19.074;2023-01-25T01:28:12;101951.50;;;-0.97;100.00
75794;BME280;64418;47.536;19.074;2023-01-25T01:30:39;101947.72;;;-0.92;100.00
75794;BME280;64418;47.536;19.074;2023-01-25T01:33:06;101952.63;;;-1.15;100.00
75794;BME280;64418;47.536;19.074;2023-01-25T01:35:32;101942.00;;;-1.01;100.00
75794;BME280;64418;47.536;19.074;2023-01-25T01:37:58;101955.50;;;-1.04;100.00
75794;BME280;64418;47.536;19.074;2023-01-25T01:40:24;101936.28;;;-1.09;100.00
75794;BME280;64418;47.536;19.074;2023-01-25T01:42:57;101951.31;;;-1.08;100.00
75794;BME280;64418;47.536;19.074;2023-01-25T01:45:51;101948.06;;;-1.27;100.00
75794;BME280;64418;47.536;19.074;2023-01-25T01:48:20;101945.97;;;-1.22;100.00
75794;BME280;64418;47.536;19.074;2023-01-25T01:50:52;101937.59;;;-1.30;100.00
75794;BME280;64418;47.536;19.074;2023-01-25T01:53:21;101936.75;;;-1.30;100.00
75794;BME280;64418;47.536;19.074;2023-01-25T01:55:49;101940.84;;;-1.25;100.00
75794;BME280;64418;47.536;19.074;2023-01-25T01:58:16;101931.56;;;-1.18;100.00
75794;BME280;64418;47.536;19.074;2023-01-25T02:00:42;101934.38;;;-1.21;100.00
75794;BME280;64418;47.536;19.074;2023-01-25T02:03:10;101933.50;;;-1.35;100.00
75794;BME280;64418;47.536;19.074;2023-01-25T02:05:43;101933.75;;;-1.10;100.00
75794;BME280;64418;47.536;19.074;2023-01-25T02:08:13;101929.84;;;-1.19;100.00
75794;BME280;64418;47.536;19.074;2023-01-25T02:10:41;101926.41;;;-1.21;100.00
75794;BME280;64418;47.536;19.074;2023-01-25T02:13:09;101926.66;;;-1.39;100.00
75794;BME280;64418;47.536;19.074;2023-01-25T02:15:37;101923.53;;;-1.32;100.00
75794;BME280;64418;47.536;19.074;2023-01-25T02:18:05;101939.00;;;-1.38;100.00
75794;BME280;64418;47.536;19.074;2023-01-25T02:20:36;101932.69;;;-1.22;100.00
75794;BME280;64418;47.536;19.074;2023-01-25T02:23:06;101936.16;;;-1.35;100.00
75794;BME280;64418;47.536;19.074;2023-01-25T02:25:36;101934.69;;;-1.25;100.00
75794;BME280;64418;47.536;19.074;2023-01-25T02:28:06;101931.44;;;-1.30;100.00
75794;BME280;64418;47.536;19.074;2023-01-25T02:30:34;101936.28;;;-1.37;100.00
75794;BME280;64418;47.536;19.074;2023-01-25T02:33:00;101925.25;;;-1.45;100.00
75794;BME280;64418;47.536;19.074;2023-01-25T02:35:37;101922.59;;;-1.45;100.00
75794;BME280;64418;47.536;19.074;2023-01-25T02:38:04;101922.59;;;-1.45;100.00
75794;BME280;64418;47.536;19.074;2023-01-25T02:40:32;101913.00;;;-1.48;100.00
75794;BME280;64418;47.536;19.074;2023-01-25T02:43:02;101908.31;;;-1.58;100.00
75794;BME280;64418;47.536;19.074;2023-01-25T02:45:29;101906.16;;;-1.52;100.00
75794;BME280;64418;47.536;19.074;2023-01-25T02:47:55;101910.03;;;-1.43;100.00
75794;BME280;64418;47.536;19.074;2023-01-25T02:50:21;101903.78;;;-1.56;100.00
75794;BME280;64418;47.536;19.074;2023-01-25T02:52:47;101896.38;;;-1.51;100.00
75794;BME280;64418;47.536;19.074;2023-01-25T02:55:12;101892.56;;;-1.47;100.00
75794;BME280;64418;47.536;19.074;2023-01-25T02:57:38;101897.53;;;-1.41;100.00
75794;BME280;64418;47.536;19.074;2023-01-25T03:00:07;101899.78;;;-1.49;100.00
75794;BME280;64418;47.536;19.074;2023-01-25T03:02:33;101900.34;;;-1.58;100.00
75794;BME280;64418;47.536;19.074;2023-01-25T03:04:59;101896.72;;;-1.57;100.00
75794;BME280;64418;47.536;19.074;2023-01-25T03:07:25;101906.22;;;-1.67;100.00
75794;BME280;64418;47.536;19.074;2023-01-25T03:09:50;101899.31;;;-1.85;100.00
75794;BME280;64418;47.536;19.074;2023-01-25T03:12:16;101893.34;;;-1.89;100.00
75794;BME280;64418;47.536;19.074;2023-01-25T03:14:42;101894.09;;;-1.87;100.00
75794;BME280;64418;47.536;19.074;2023-01-25T03:17:10;101892.66;;;-1.63;100.00
75794;BME280;64418;47.536;19.074;2023-01-25T03:19:36;101895.69;;;-1.84;100.00
75794;BME280;64418;47.536;19.074;2023-01-25T03:22:02;101898.88;;;-1.78;100.00
75794;BME280;64418;47.536;19.074;2023-01-25T03:24:28;101891.13;;;-1.67;100.00
75794;BME280;64418;47.536;19.074;2023-01-25T03:26:54;101884.56;;;-1.61;100.00
75794;BME280;64418;47.536;19.074;2023-01-25T03:29:20;101890.87;;;-1.48;100.00
75794;BME280;64418;47.536;19.074;2023-01-25T03:31:45;101889.19;;;-1.35;100.00
75794;BME280;64418;47.536;19.074;2023-01-25T03:34:13;101891.37;;;-1.27;100.00
75794;BME280;64418;47.536;19.074;2023-01-25T03:36:39;101897.38;;;-1.10;100.00
75794;BME280;64418;47.536;19.074;2023-01-25T03:39:04;101899.25;;;-0.98;100.00
75794;BME280;64418;47.536;19.074;2023-01-25T03:41:30;101898.13;;;-0.93;100.00
75794;BME280;64418;47.536;19.074;2023-01-25T03:43:56;101905.91;;;-0.90;100.00
75794;BME280;64418;47.536;19.074;2023-01-25T03:46:21;101899.84;;;-0.92;100.00
75794;BME280;64418;47.536;19.074;2023-01-25T03:48:47;101893.78;;;-0.94;100.00
75794;BME280;64418;47.536;19.074;2023-01-25T03:51:14;101896.53;;;-0.96;100.00
75794;BME280;64418;47.536;19.074;2023-01-25T03:53:40;101900.41;;;-1.02;100.00
75794;BME280;64418;47.536;19.074;2023-01-25T03:56:07;101893.00;;;-1.11;100.00
75794;BME280;64418;47.536;19.074;2023-01-25T03:58:35;101889.38;;;-1.24;100.00
75794;BME280;64418;47.536;19.074;2023-01-25T04:01:02;101892.41;;;-1.30;100.00
75794;BME280;64418;47.536;19.074;2023-01-25T04:03:29;101887.37;;;-1.34;100.00
75794;BME280;64418;47.536;19.074;2023-01-25T04:05:55;101890.87;;;-1.48;100.00
75794;BME280;64418;47.536;19.074;2023-01-25T04:08:23;101884.56;;;-1.61;100.00
75794;BME280;64418;47.536;19.074;2023-01-25T04:10:49;101882.50;;;-1.70;100.00
75794;BME280;64418;47.536;19.074;2023-01-25T04:13:15;101892.38;;;-1.88;100.00
75794;BME280;64418;47.536;19.074;2023-01-25T04:15:41;101889.00;;;-2.06;100.00
75794;BME280;64418;47.536;19.074;2023-01-25T04:18:06;101881.78;;;-2.04;100.00
75794;BME280;64418;47.536;19.074;2023-01-25T04:20:32;101886.09;;;-2.01;100.00
75794;BME280;64418;47.536;19.074;2023-01-25T04:22:58;101897.56;;;-2.01;100.00
75794;BME280;64418;47.536;19.074;2023-01-25T04:25:25;101891.84;;;-2.09;100.00
75794;BME280;64418;47.536;19.074;2023-01-25T04:27:51;101900.38;;;-2.04;100.00
75794;BME280;64418;47.536;19.074;2023-01-25T04:30:16;101893.44;;;-2.06;100.00
75794;BME280;64418;47.536;19.074;2023-01-25T04:32:42;101897.09;;;-2.23;100.00
75794;BME280;64418;47.536;19.074;2023-01-25T04:35:08;101896.91;;;-2.35;100.00
75794;BME280;64418;47.536;19.074;2023-01-25T04:37:34;101896.22;;;-2.23;100.00
75794;BME280;64418;47.536;19.074;2023-01-25T04:40:00;101899.97;;;-2.12;100.00
75794;BME280;64418;47.536;19.074;2023-01-25T04:42:27;101901.16;;;-2.02;100.00
75794;BME280;64418;47.536;19.074;2023-01-25T04:44:56;101903.66;;;-1.84;100.00
75794;BME280;64418;47.536;19.074;2023-01-25T04:47:21;101899.59;;;-1.60;100.00
75794;BME280;64418;47.536;19.074;2023-01-25T04:49:47;101908.25;;;-1.42;100.00
75794;BME280;64418;47.536;19.074;2023-01-25T04:52:13;101905.91;;;-1.33;100.00
75794;BME280;64418;47.536;19.074;2023-01-25T04:54:38;101901.91;;;-1.26;100.00
75794;BME280;64418;47.536;19.074;2023-01-25T04:57:04;101899.66;;;-1.18;100.00
75794;BME280;64418;47.536;19.074;2023-01-25T04:59:31;101900.97;;;-1.11;100.00
75794;BME280;64418;47.536;19.074;2023-01-25T05:01:57;101896.53;;;-1.10;100.00
75794;BME280;64418;47.536;19.074;2023-01-25T05:04:23;101906.31;;;-1.11;100.00
75794;BME280;64418;47.536;19.074;2023-01-25T05:06:48;101902.00;;;-1.13;100.00
75794;BME280;64418;47.536;19.074;2023-01-25T05:09:15;101890.53;;;-1.14;100.00
75794;BME280;64418;47.536;19.074;2023-01-25T05:11:40;101898.03;;;-1.06;100.00
75794;BME280;64418;47.536;19.074;2023-01-25T05:14:06;101896.78;;;-1.01;100.00
75794;BME280;64418;47.536;19.074;2023-01-25T05:16:33;101901.91;;;-0.98;100.00
75794;BME280;64418;47.536;19.074;2023-01-25T05:18:59;101905.56;;;-0.99;100.00
75794;BME280;64418;47.536;19.074;2023-01-25T05:21:25;101900.22;;;-0.99;100.00
75794;BME280;64418;47.536;19.074;2023-01-25T05:23:51;101908.97;;;-0.97;100.00
75794;BME280;64418;47.536;19.074;2023-01-25T05:26:16;101904.50;;;-0.96;100.00
75794;BME280;64418;47.536;19.074;2023-01-25T05:28:42;101907.06;;;-0.94;100.00
75794;BME280;64418;47.536;19.074;2023-01-25T05:31:08;101909.72;;;-0.94;100.00
75794;BME280;64418;47.536;19.074;2023-01-25T05:33:35;101908.00;;;-0.95;100.00
75794;BME280;64418;47.536;19.074;2023-01-25T05:36:00;101909.91;;;-0.98;100.00
75794;BME280;64418;47.536;19.074;2023-01-25T05:38:26;101918.37;;;-0.91;100.00
75794;BME280;64418;47.536;19.074;2023-01-25T05:40:56;101914.84;;;-0.91;100.00
75794;BME280;64418;47.536;19.074;2023-01-25T05:43:22;101922.63;;;-0.88;100.00
75794;BME280;64418;47.536;19.074;2023-01-25T05:45:51;101903.25;;;-0.90;100.00
75794;BME280;64418;47.536;19.074;2023-01-25T05:48:17;101908.75;;;-0.93;100.00
75794;BME280;64418;47.536;19.074;2023-01-25T05:50:44;101902.78;;;-0.97;100.00
75794;BME280;64418;47.536;19.074;2023-01-25T05:53:09;101907.25;;;-0.98;100.00
75794;BME280;64418;47.536;19.074;2023-01-25T05:55:35;101905.56;;;-0.99;100.00
75794;BME280;64418;47.536;19.074;2023-01-25T05:58:02;101903.72;;;-0.98;100.00
75794;BME280;64418;47.536;19.074;2023-01-25T06:00:32;101905.25;;;-0.94;100.00
75794;BME280;64418;47.536;19.074;2023-01-25T06:03:00;101908.56;;;-0.90;100.00
75794;BME280;64418;47.536;19.074;2023-01-25T06:05:25;101896.03;;;-0.88;100.00
75794;BME280;64418;47.536;19.074;2023-01-25T06:07:52;101907.53;;;-0.88;100.00
75794;BME280;64418;47.536;19.074;2023-01-25T06:10:18;101906.88;;;-0.91;100.00
75794;BME280;64418;47.536;19.074;2023-01-25T06:12:44;101905.56;;;-0.99;100.00
75794;BME280;64418;47.536;19.074;2023-01-25T06:15:13;101917.13;;;-1.00;100.00
75794;BME280;64418;47.536;19.074;2023-01-25T06:17:38;101913.62;;;-1.00;100.00
75794;BME280;64418;47.536;19.074;2023-01-25T06:20:05;101917.13;;;-1.00;100.00
75794;BME280;64418;47.536;19.074;2023-01-25T06:22:31;101923.38;;;-1.01;100.00
75794;BME280;64418;47.536;19.074;2023-01-25T06:24:58;101932.16;;;-0.99;100.00
75794;BME280;64418;47.536;19.074;2023-01-25T06:27:24;101926.81;;;-0.99;100.00
75794;BME280;64418;47.536;19.074;2023-01-25T06:29:50;101924.53;;;-1.05;100.00
75794;BME280;64418;47.536;19.074;2023-01-25T06:32:16;101930.22;;;-1.11;100.00
75794;BME280;64418;47.536;19.074;2023-01-25T06:34:42;101933.75;;;-1.10;100.00
75794;BME280;64418;47.536;19.074;2023-01-25T06:37:08;101935.63;;;-1.12;100.00
75794;BME280;64418;47.536;19.074;2023-01-25T06:39:34;101929.56;;;-1.14;100.00
75794;BME280;64418;47.536;19.074;2023-01-25T06:42:04;101933.44;;;-1.20;100.00
75794;BME280;64418;47.536;19.074;2023-01-25T06:44:30;101938.56;;;-1.17;100.00
75794;BME280;64418;47.536;19.074;2023-01-25T06:46:55;101942.34;;;-1.21;100.00
75794;BME280;64418;47.536;19.074;2023-01-25T06:49:21;101945.78;;;-1.19;100.00
75794;BME280;64418;47.536;19.074;2023-01-25T06:51:47;101941.13;;;-1.15;100.00
75794;BME280;64418;47.536;19.074;2023-01-25T06:54:12;101936.88;;;-1.18;100.00
75794;BME280;64418;47.536;19.074;2023-01-25T06:56:38;101939.63;;;-1.19;100.00
75794;BME280;64418;47.536;19.074;2023-01-25T06:59:05;101937.91;;;-1.20;100.00
75794;BME280;64418;47.536;19.074;2023-01-25T07:01:31;101934.50;;;-1.22;100.00
75794;BME280;64418;47.536;19.074;2023-01-25T07:03:57;101936.09;;;-1.20;100.00
75794;BME280;64418;47.536;19.074;2023-01-25T07:06:24;101931.72;;;-1.21;100.00
75794;BME280;64418;47.536;19.074;2023-01-25T07:08:50;101941.53;;;-1.07;100.00
75794;BME280;64418;47.536;19.074;2023-01-25T07:11:17;101944.31;;;-0.94;100.00
75794;BME280;64418;47.536;19.074;2023-01-25T07:13:44;101938.31;;;-0.84;100.00
75794;BME280;64418;47.536;19.074;2023-01-25T07:16:13;101941.25;;;-0.74;100.00
75794;BME280;64418;47.536;19.074;2023-01-25T07:18:39;101934.09;;;-0.60;100.00
75794;BME280;64418;47.536;19.074;2023-01-25T07:21:07;101921.63;;;-0.45;100.00
75794;BME280;64418;47.536;19.074;2023-01-25T07:23:33;101928.63;;;-0.30;100.00
75794;BME280;64418;47.536;19.074;2023-01-25T07:26:00;101925.47;;;-0.22;100.00
75794;BME280;64418;47.536;19.074;2023-01-25T07:28:26;101929.72;;;-0.06;100.00
75794;BME280;64418;47.536;19.074;2023-01-25T07:30:52;101925.91;;;-0.02;100.00
75794;BME280;64418;47.536;19.074;2023-01-25T07:33:19;101927.34;;;-0.10;100.00
75794;BME280;64418;47.536;19.074;2023-01-25T07:35:45;101930.31;;;-0.15;100.00
75794;BME280;64418;47.536;19.074;2023-01-25T07:38:11;101928.91;;;0.07;100.00
75794;BME280;64418;47.536;19.074;2023-01-25T07:40:37;101932.25;;;1.74;96.39
75794;BME280;64418;47.536;19.074;2023-01-25T07:43:04;101936.03;;;2.78;91.96
75794;BME280;64418;47.536;19.074;2023-01-25T07:45:30;101924.72;;;3.74;86.73
75794;BME280;64418;47.536;19.074;2023-01-25T07:47:57;101935.47;;;3.52;82.44
75794;BME280;64418;47.536;19.074;2023-01-25T07:50:26;101928.91;;;2.31;84.52
75794;BME280;64418;47.536;19.074;2023-01-25T07:52:52;101932.06;;;2.01;86.39
75794;BME280;64418;47.536;19.074;2023-01-25T07:55:18;101931.72;;;2.06;86.50
75794;BME280;64418;47.536;19.074;2023-01-25T07:57:44;101938.09;;;2.85;83.76
75794;BME280;64418;47.536;19.074;2023-01-25T08:00:12;101929.72;;;2.44;83.73
75794;BME280;64418;47.536;19.074;2023-01-25T08:02:38;101936.94;;;3.34;81.94
75794;BME280;64418;47.536;19.074;2023-01-25T08:05:05;101926.97;;;3.47;78.91
75794;BME280;64418;47.536;19.074;2023-01-25T08:07:32;101926.34;;;3.21;83.45
75794;BME280;64418;47.536;19.074;2023-01-25T08:09:58;101926.09;;;2.45;84.83
75794;BME280;64418;47.536;19.074;2023-01-25T08:12:24;101917.03;;;2.00;85.85
75794;BME280;64418;47.536;19.074;2023-01-25T08:14:50;101911.94;;;2.08;85.38
75794;BME280;64418;47.536;19.074;2023-01-25T08:17:16;101923.12;;;2.37;85.33
75794;BME280;64418;47.536;19.074;2023-01-25T08:19:42;101917.44;;;3.10;81.83
75794;BME280;64418;47.536;19.074;2023-01-25T08:22:09;101929.88;;;3.33;80.81
75794;BME280;64418;47.536;19.074;2023-01-25T08:24:36;101918.94;;;3.36;79.75
75794;BME280;64418;47.536;19.074;2023-01-25T08:27:02;101918.69;;;5.49;73.33
75794;BME280;64418;47.536;19.074;2023-01-25T08:29:28;101916.34;;;6.44;67.58
75794;BME280;64418;47.536;19.074;2023-01-25T08:31:54;101915.97;;;5.09;70.86
75794;BME280;64418;47.536;19.074;2023-01-25T08:34:21;101911.44;;;4.16;75.21
75794;BME280;64418;47.536;19.074;2023-01-25T08:36:47;101918.31;;;5.33;72.96
75794;BME280;64418;47.536;19.074;2023-01-25T08:39:13;101915.72;;;5.22;72.05
75794;BME280;64418;47.536;19.074;2023-01-25T08:41:40;101907.59;;;4.61;74.29
75794;BME280;64418;47.536;19.074;2023-01-25T08:44:06;101915.00;;;3.73;78.34
75794;BME280;64418;47.536;19.074;2023-01-25T08:46:33;101912.59;;;3.04;80.64
75794;BME280;64418;47.536;19.074;2023-01-25T08:48:59;101910.72;;;2.82;81.95
75794;BME280;64418;47.536;19.074;2023-01-25T08:51:26;101908.50;;;2.76;82.84
75794;BME280;64418;47.536;19.074;2023-01-25T08:53:53;101919.78;;;2.57;84.83
75794;BME280;64418;47.536;19.074;2023-01-25T08:56:19;101915.56;;;2.31;85.09
75794;BME280;64418;47.536;19.074;2023-01-25T08:58:48;101908.06;;;2.36;85.60
75794;BME280;64418;47.536;19.074;2023-01-25T09:01:16;101905.03;;;2.40;85.67
75794;BME280;64418;47.536;19.074;2023-01-25T09:03:43;101901.66;;;2.15;86.40
75794;BME280;64418;47.536;19.074;2023-01-25T09:06:10;101904.94;;;2.18;87.13
75794;BME280;64418;47.536;19.074;2023-01-25T09:08:36;101905.47;;;2.34;87.35
75794;BME280;64418;47.536;19.074;2023-01-25T09:11:02;101906.84;;;2.40;86.31
75794;BME280;64418;47.536;19.074;2023-01-25T09:13:29;101899.84;;;2.61;86.37
75794;BME280;64418;47.536;19.074;2023-01-25T09:15:59;101905.69;;;2.55;86.36
75794;BME280;64418;47.536;19.074;2023-01-25T09:18:29;101905.13;;;2.39;87.07
75794;BME280;64418;47.536;19.074;2023-01-25T09:20:55;101903.34;;;2.51;86.29
75794;BME280;64418;47.536;19.074;2023-01-25T09:23:22;101898.75;;;2.53;87.24
75794;BME280;64418;47.536;19.074;2023-01-25T09:25:48;101899.09;;;2.48;87.02
75794;BME280;64418;47.536;19.074;2023-01-25T09:28:15;101902.59;;;2.37;87.63
75794;BME280;64418;47.536;19.074;2023-01-25T09:30:41;101897.97;;;2.39;87.70
75794;BME280;64418;47.536;19.074;2023-01-25T09:33:09;101894.63;;;2.25;87.58
75794;BME280;64418;47.536;19.074;2023-01-25T09:35:35;101892.59;;;2.28;87.61
75794;BME280;64418;47.536;19.074;2023-01-25T09:38:00;101898.75;;;2.18;88.36
75794;BME280;64418;47.536;19.074;2023-01-25T09:40:31;101903.34;;;2.16;88.73
75794;BME280;64418;47.536;19.074;2023-01-25T09:43:00;101904.44;;;2.13;88.72
75794;BME280;64418;47.536;19.074;2023-01-25T09:45:31;101896.31;;;2.15;88.94
75794;BME280;64418;47.536;19.074;2023-01-25T09:48:01;101889.47;;;2.11;88.95
75794;BME280;64418;47.536;19.074;2023-01-25T09:50:40;101886.69;;;2.12;88.71
75794;BME280;64418;47.536;19.074;2023-01-25T09:53:32;101884.47;;;2.30;88.47
75794;BME280;64418;47.536;19.074;2023-01-25T09:56:02;101879.72;;;2.33;88.38
75794;BME280;64418;47.536;19.074;2023-01-25T09:58:32;101872.09;;;2.40;87.79
75794;BME280;64418;47.536;19.074;2023-01-25T10:01:08;101865.97;;;2.38;87.36
75794;BME280;64418;47.536;19.074;2023-01-25T10:03:42;101861.16;;;2.43;87.10
75794;BME280;64418;47.536;19.074;2023-01-25T10:06:13;101857.75;;;2.41;86.72
75794;BME280;64418;47.536;19.074;2023-01-25T10:08:48;101859.00;;;2.59;86.69
75794;BME280;64418;47.536;19.074;2023-01-25T10:11:20;101853.91;;;2.56;86.16
75794;BME280;64418;47.536;19.074;2023-01-25T10:13:47;101845.59;;;2.48;86.14
75794;BME280;64418;47.536;19.074;2023-01-25T10:16:19;101838.69;;;2.57;85.98
75794;BME280;64418;47.536;19.074;2023-01-25T10:18:53;101836.41;;;2.63;86.03
75794;BME280;64418;47.536;19.074;2023-01-25T10:21:28;101833.81;;;2.62;85.75
75794;BME280;64418;47.536;19.074;2023-01-25T10:24:07;101826.41;;;2.76;84.81
75794;BME280;64418;47.536;19.074;2023-01-25T10:26:39;101838.84;;;2.77;84.47
75794;BME280;64418;47.536;19.074;2023-01-25T10:29:12;101834.25;;;2.90;84.91
75794;BME280;64418;47.536;19.074;2023-01-25T10:31:45;101827.78;;;3.04;82.85
75794;BME280;64418;47.536;19.074;2023-01-25T10:34:17;101820.84;;;3.02;82.08
75794;BME280;64418;47.536;19.074;2023-01-25T10:36:47;101821.78;;;3.23;81.78
75794;BME280;64418;47.536;19.074;2023-01-25T10:39:16;101807.78;;;3.30;81.22
75794;BME280;64418;47.536;19.074;2023-01-25T10:41:44;101810.13;;;3.24;81.55
75794;BME280;64418;47.536;19.074;2023-01-25T10:44:11;101800.13;;;3.26;81.28
75794;BME280;64418;47.536;19.074;2023-01-25T10:46:39;101801.81;;;3.38;80.80
75794;BME280;64418;47.536;19.074;2023-01-25T10:49:19;101805.44;;;3.37;80.33
75794;BME280;64418;47.536;19.074;2023-01-25T10:51:48;101806.37;;;3.58;80.50
75794;BME280;64418;47.536;19.074;2023-01-25T10:54:15;101800.47;;;3.75;79.67
75794;BME280;64418;47.536;19.074;2023-01-25T10:56:42;101799.53;;;3.65;79.91
75794;BME280;64418;47.536;19.074;2023-01-25T10:59:17;101793.09;;;3.57;80.07
75794;BME280;64418;47.536;19.074;2023-01-25T11:01:45;101787.13;;;3.64;80.22
75794;BME280;64418;47.536;19.074;2023-01-25T11:04:30;101783.94;;;3.59;80.38
75794;BME280;64418;47.536;19.074;2023-01-25T11:06:58;101779.84;;;3.44;81.48
75794;BME280;64418;47.536;19.074;2023-01-25T11:09:35;101777.78;;;3.48;81.72
75794;BME280;64418;47.536;19.074;2023-01-25T11:12:04;101783.41;;;3.45;81.58
75794;BME280;64418;47.536;19.074;2023-01-25T11:14:32;101778.63;;;3.48;81.47
75794;BME280;64418;47.536;19.074;2023-01-25T11:17:02;101766.41;;;3.66;81.46
75794;BME280;64418;47.536;19.074;2023-01-25T11:19:33;101769.22;;;3.65;80.13
75794;BME280;64418;47.536;19.074;2023-01-25T11:22:04;101765.47;;;3.56;80.43
75794;BME280;64418;47.536;19.074;2023-01-25T11:24:32;101760.09;;;3.56;80.22
75794;BME280;64418;47.536;19.074;2023-01-25T11:27:13;101753.81;;;3.46;81.01
75794;BME280;64418;47.536;19.074;2023-01-25T11:29:41;101749.91;;;3.50;80.47
75794;BME280;64418;47.536;19.074;2023-01-25T11:32:15;101743.47;;;3.73;79.94
75794;BME280;64418;47.536;19.074;2023-01-25T11:34:41;101744.72;;;3.90;79.80
75794;BME280;64418;47.536;19.074;2023-01-25T11:37:21;101732.50;;;3.76;79.67
75794;BME280;64418;47.536;19.074;2023-01-25T11:39:59;101727.12;;;3.97;78.90
75794;BME280;64418;47.536;19.074;2023-01-25T11:42:34;101724.81;;;4.04;78.30
75794;BME280;64418;47.536;19.074;2023-01-25T11:45:28;101722.94;;;4.04;78.16
75794;BME280;64418;47.536;19.074;2023-01-25T11:50:52;101703.41;;;4.13;76.94
75794;BME280;64418;47.536;19.074;2023-01-25T11:53:43;101692.84;;;4.21;77.26
75794;BME280;64418;47.536;19.074;2023-01-25T11:56:16;101683.69;;;4.24;76.76
75794;BME280;64418;47.536;19.074;2023-01-25T11:58:58;101683.50;;;4.16;76.64
75794;BME280;64418;47.536;19.074;2023-01-25T12:01:33;101676.00;;;4.10;77.49
75794;BME280;64418;47.536;19.074;2023-01-25T12:04:38;101670.53;;;4.21;76.89
75794;BME280;64418;47.536;19.074;2023-01-25T12:07:15;101669.66;;;4.11;76.02
75794;BME280;64418;47.536;19.074;2023-01-25T12:09:56;101665.91;;;4.23;75.85
75794;BME280;64418;47.536;19.074;2023-01-25T12:12:35;101661.66;;;4.20;76.48
75794;BME280;64418;47.536;19.074;2023-01-25T12:15:25;101658.59;;;4.04;77.35
75794;BME280;64418;47.536;19.074;2023-01-25T12:18:14;101648.62;;;4.16;77.40
75794;BME280;64418;47.536;19.074;2023-01-25T12:20:58;101648.69;;;4.25;77.02
75794;BME280;64418;47.536;19.074;2023-01-25T12:23:35;101651.88;;;4.10;77.56
75794;BME280;64418;47.536;19.074;2023-01-25T12:26:18;101648.81;;;4.24;77.63
75794;BME280;64418;47.536;19.074;2023-01-25T12:28:49;101647.94;;;4.14;77.85
75794;BME280;64418;47.536;19.074;2023-01-25T12:31:18;101645.62;;;4.00;78.70
75794;BME280;64418;47.536;19.074;2023-01-25T12:33:50;101648.47;;;4.08;78.66
75794;BME280;64418;47.536;19.074;2023-01-25T12:36:25;101643.00;;;3.88;79.03
75794;BME280;64418;47.536;19.074;2023-01-25T12:38:55;101643.50;;;4.03;78.69
75794;BME280;64418;47.536;19.074;2023-01-25T12:41:32;101635.47;;;4.03;78.71
75794;BME280;64418;47.536;19.074;2023-01-25T12:44:07;101641.69;;;4.04;78.42
75794;BME280;64418;47.536;19.074;2023-01-25T12:46:37;101639.91;;;3.93;78.65
75794;BME280;64418;47.536;19.074;2023-01-25T12:49:10;101632.22;;;4.00;78.69